Terminal Aerodrome Forecast
Issued by NWS

Home | Current Version | Previous Version | Text Only | Print | Product List | Glossary On
Versions: 1 2 3 4 5 6 7 8 9 10 11 12 13 14 15
000
FTUS43 KIND 291727
TAFHUF
TAF
KHUF 291727Z 2918/3018 02007KT P6SM SCT025 BKN040
     FM300000 02004KT P6SM VCSH SCT035 BKN060
     FM300300 VRB03KT P6SM BKN060 PROB30 3003/3006 4SM -SHRA OVC025
     FM300600 35004KT P6SM BKN015 PROB30 3006/3009 4SM -SHRA OVC003
     FM300900 35005KT P6SM OVC008 PROB30 3009/3010 4SM -SHRA OVC003
     FM301000 35005KT 6SM -SHRA OVC008
     FM301200 35005KT 5SM SHRA OVC008
     FM301600 04005KT 6SM SHRA OVC014=

USA.gov is the U.S. government's official web portal to all federal, state and local government web resources and services.